"WATCHING THE WEATHER TO PROTECT LIFE AND PROPERTY"



Aviation
Satellite (InfraRed)


KFLL 292355Z 32004KT 10SM FEW028 FEW060 SCT120 BKN250 27/23 A3003 RMK CB DSNT SW
KMCO 292353Z 00000KT 9SM -RA FEW020 FEW050 BKN130 BKN250 26/24 A3001 RMK AO2 SLP160 P0009 60029 T02560239 10344 20250 58005
KMIA 292353Z VRB05KT 7SM +RA FEW020CB BKN033 BKN070 OVC250 27/24 A3005 RMK AO2 LTG DSNT W RAB51 SLP175 CB NW-NE MOV S P0002 60054 T02720239 10322 20250 53017 $
KTPA 292353Z 00000KT 10SM FEW017 BKN250 28/24 A3002 RMK AO2 SLP165 60005 T02780239 10283 20261 55006
MDPP 300000Z 13006KT 9999 FEW018 26/24 Q1016
MDSD 300000Z 12007KT 9999 FEW018CB SCT020 28/24 Q1015 CB/N
MKJS 300000Z 16004KT 9999 FEW020 FEW022CB 27/24 Q1013
MTPP 291059Z 12010KT 8000 FEW022 26/23 Q1014 A2995
MUHA 292355Z VRB02KT 9000 FEW018CB BKN040 26/26 Q1016
MYNN 300000Z 14008KT 9999 FEW018CB 30/24 A3004
TAPA 300000Z 09008KT 050V140 9999 FEW018 27/23 Q1018 NOSIG
TFFF 300030Z AUTO 09009KT 9999 FEW028 27/22 Q1017 NOSIG
TFFR 300030Z AUTO 11004KT CAVOK 27/23 Q1018 NOSIG
TIST 240753Z AUTO 00000KT 10SM FEW020 SCT038 OVC060 27/24 A2994 RMK AO2 RAB14E53 SLP138 P0008 T02720244 $
TISX 292353Z 08009KT 10SM CLR 28/24 A3005 RMK AO2 SLP173 T02780244 10311 20278 52009
TJSJ 300018Z 09007KT 10SM FEW045 SCT100 28/24 A3006 RMK AO2 T02780244
TKPK 292100Z 12010KT 9999 FEW014CB 29/23 Q1016
TNCA 300000Z 08023KT 9999 FEW019 28/24 Q1010 NOSIG
TNCB 292355Z AUTO 10012KT 070V140 9999 NSC 27/24 Q1012
TNCC 300000Z 11015KT 9999 FEW018 28/24 Q1011 NOSIG
TNCE 292355Z AUTO 08007KT 050V110 //// // ///////// 27/23 Q1017 RE//
TNCM 300000Z 07008KT 9999 FEW018 28/25 Q1019 NOSIG
TQPF 292300Z 10014KT 9999 FEW016 BKN038 27/23 Q1018
TUPJ 300000Z 11009KT 10SM SCT019 28/25 A3007 RMK Q1018 VIS16KM